עמוד ראשי
METAR-TAF:

METAR-TAF

שדות תעופה :

בצרה, עיראק

קו רוחב: 30-32-56N, קו אורך: 47-39-45E, גובה: 1מטר

תצפית מזג אוויר נוכחית

הדו"ח נערך לפני 27דקות, בשעה 21:00 UTC
רוח 8קשר מכיוון מערב/צפון-מערב
טמפרטורת 33 צלסיוס
לחות 21%
לחץ 999 hPa
ראות 10 קילומטר או יותר
ללא עננים שבסיסם נמוך מ 5000 רגל או קומולונימבוס

METAR: ORMM 132100Z 30008KT CAVOK 33/08 Q0999 NOSIG

זמן: 00:27 (21:27 UTC)

תחזית

הדו"ח נערך לפני 5 שעות ו 27דקות, בשעה 16:00 UTC
תחזית בתוקף מ 13 ב 18 UTC עד 14 ב 18 UTC
רוח 12קשר מכיוון מערב/צפון-מערב
ראות: 8000מטר

TAF: ORMM 131600Z 1318/1418 30012KT 8000 NSC

תצפיות ותחזיות מזג אוויר לגבי יותר מ- 4,000 שדות תעופה ברחבי העולם. דוחות METAR ו- TAF.

התחנות הזמינות מסומנות בנקודות צהובות ואדומות על גבי המפה.

העבר את העכבר לנקודה הצבעונית על מנת לראות את שם התחנה.

לאחר מכן, לחץ כדי לראות את תוכן ואת תחזיות מזג האוויר.

כדי לשנות את המפה: לחץ על הכפתורים הירוקים עם הפלוס השחור כדי להתקרב; על הכפתור הירוק עם המקף כדי להתרחק; או בחיצים הירוקים למפות סמוכות.


METAR-TAF: